Time;durP1;ratioP1;P1;durP2;ratioP2;P2;SDS_P1;SDS_P2;PMS_P1;PMS_P2;Temp;Humidity;BMP_temperature;BMP_pressure;BME280_temperature;BME280_humidity;BME280_pressure;Samples;Min_cycle;Max_cycle;Signal;HPM_P1;HPM_P2
2022/08/08 00:02:01;;;;;;;0.10;0.10;;;;;;;;;;4907770;29;20042;-93
2022/08/08 00:04:30;;;;;;;0.10;0.10;;;;;;;;;;4909125;29;20475;-92
2022/08/08 00:07:16;;;;;;;0.10;0.10;;;;;;;;;;4909269;29;20043;-92
2022/08/08 00:09:45;;;;;;;0.10;0.10;;;;;;;;;;4925144;29;20054;-92
2022/08/08 00:12:12;;;;;;;0.10;0.10;;;;;;;;;;4907879;29;20150;-92
2022/08/08 00:14:38;;;;;;;0.10;0.10;;;;;;;;;;4907738;28;20407;-92
2022/08/08 00:17:19;;;;;;;0.10;0.10;;;;;;;;;;4923414;29;20055;-93
2022/08/08 00:19:48;;;;;;;0.10;0.10;;;;;;;;;;4907622;29;20039;-93
2022/08/08 00:22:21;;;;;;;0.10;0.10;;;;;;;;;;4922932;29;20134;-93
2022/08/08 00:24:51;;;;;;;0.10;0.10;;;;;;;;;;4907523;29;20062;-93
2022/08/08 00:27:18;;;;;;;0.10;0.10;;;;;;;;;;4907642;28;20043;-93
2022/08/08 00:29:49;;;;;;;0.10;0.10;;;;;;;;;;4907510;29;20431;-92
2022/08/08 00:32:17;;;;;;;0.10;0.10;;;;;;;;;;4923168;29;20178;-93
2022/08/08 00:35:10;;;;;;;0.10;0.10;;;;;;;;;;4907355;29;20043;-93
2022/08/08 00:37:55;;;;;;;0.10;0.10;;;;;;;;;;4922127;28;20113;-93
2022/08/08 00:40:24;;;;;;;0.10;0.10;;;;;;;;;;4922840;29;20047;-92
2022/08/08 00:42:55;;;;;;;0.10;0.10;;;;;;;;;;4923274;29;20078;-92
2022/08/08 00:45:39;;;;;;;0.10;0.10;;;;;;;;;;4907462;29;20051;-92
2022/08/08 00:48:06;;;;;;;0.10;0.10;;;;;;;;;;4922463;29;20039;-91
2022/08/08 00:50:41;;;;;;;0.10;0.10;;;;;;;;;;4922609;29;20126;-92
2022/08/08 00:53:07;;;;;;;0.10;0.10;;;;;;;;;;4922735;29;20082;-92
2022/08/08 00:55:42;;;;;;;0.10;0.10;;;;;;;;;;4922549;29;20078;-92
2022/08/08 00:58:13;;;;;;;0.10;0.10;;;;;;;;;;4922264;28;20575;-93
2022/08/08 01:00:49;;;;;;;0.10;0.10;;;;;;;;;;4907098;29;20043;-93
2022/08/08 01:03:34;;;;;;;0.10;0.10;;;;;;;;;;4906507;29;20039;-92
2022/08/08 01:06:18;;;;;;;0.10;0.10;;;;;;;;;;4922332;29;20039;-93
2022/08/08 01:09:03;;;;;;;0.10;0.10;;;;;;;;;;4921893;28;20047;-93
2022/08/08 01:11:47;;;;;;;0.10;0.10;;;;;;;;;;4922469;29;20074;-92
2022/08/08 01:14:19;;;;;;;0.10;0.10;;;;;;;;;;4922218;29;20050;-92
2022/08/08 01:16:45;;;;;;;0.10;0.10;;;;;;;;;;4935876;28;20109;-92
2022/08/08 01:19:20;;;;;;;0.10;0.10;;;;;;;;;;4940846;28;20043;-92
2022/08/08 01:21:58;;;;;;;0.10;0.10;;;;;;;;;;4941020;28;20039;-92
2022/08/08 01:24:31;;;;;;;0.10;0.10;;;;;;;;;;4925329;28;20499;-92
2022/08/08 01:27:17;;;;;;;0.10;0.10;;;;;;;;;;4940691;28;20039;-92
2022/08/08 01:29:45;;;;;;;0.10;0.10;;;;;;;;;;4940705;28;20565;-91
2022/08/08 01:32:22;;;;;;;0.10;0.10;;;;;;;;;;4941360;28;20047;-92
2022/08/08 01:35:08;;;;;;;0.10;0.10;;;;;;;;;;4925331;28;20054;-91
2022/08/08 01:37:52;;;;;;;0.10;0.10;;;;;;;;;;4925060;28;20042;-92
2022/08/08 01:40:25;;;;;;;0.10;0.10;;;;;;;;;;4956617;28;20047;-92
2022/08/08 01:43:08;;;;;;;0.10;0.10;;;;;;;;;;4940354;28;20050;-91
2022/08/08 01:45:50;;;;;;;0.10;0.10;;;;;;;;;;4924737;28;20224;-93
2022/08/08 01:48:25;;;;;;;0.10;0.10;;;;;;;;;;4940002;28;20130;-93
2022/08/08 01:51:10;;;;;;;0.08;0.08;;;;;;;;;;4940458;28;20113;-93
2022/08/08 01:53:45;;;;;;;0.10;0.10;;;;;;;;;;4940540;28;20082;-92
2022/08/08 01:56:30;;;;;;;0.10;0.10;;;;;;;;;;4956339;28;20046;-93
2022/08/08 01:59:05;;;;;;;0.10;0.10;;;;;;;;;;4940355;28;20049;-92
2022/08/08 02:01:35;;;;;;;0.00;0.00;;;;;;;;;;4941080;28;20389;-93
2022/08/08 02:04:00;;;;;;;0.10;0.10;;;;;;;;;;4941131;28;20046;-92
2022/08/08 02:06:49;;;;;;;0.10;0.10;;;;;;;;;;4957672;28;20050;-92
2022/08/08 02:09:15;;;;;;;0.10;0.10;;;;;;;;;;4941304;28;20175;-92
2022/08/08 02:11:43;;;;;;;0.10;0.10;;;;;;;;;;4941066;28;20057;-94
2022/08/08 02:14:28;;;;;;;0.10;0.10;;;;;;;;;;4941138;28;20043;-93
2022/08/08 02:16:58;;;;;;;0.10;0.10;;;;;;;;;;4940699;28;20051;-92
2022/08/08 02:19:25;;;;;;;0.10;0.10;;;;;;;;;;4940554;28;20046;-92
2022/08/08 02:25:10;;;;;;;0.10;0.10;;;;;;;;;;4942918;28;20043;-92
2022/08/08 02:27:55;;;;;;;0.10;0.10;;;;;;;;;;4940041;28;20046;-91
2022/08/08 02:30:36;;;;;;;0.10;0.10;;;;;;;;;;4940545;28;20074;-92
2022/08/08 02:33:09;;;;;;;0.57;0.57;;;;;;;;;;4924520;28;20561;-92
2022/08/08 02:35:38;;;;;;;0.32;0.32;;;;;;;;;;4940373;28;20043;-91
2022/08/08 02:38:04;;;;;;;0.00;0.00;;;;;;;;;;4939961;28;20058;-92
2022/08/08 02:40:43;;;;;;;0.10;0.10;;;;;;;;;;4939743;28;20039;-91
2022/08/08 02:43:27;;;;;;;0.10;0.10;;;;;;;;;;4940088;28;20473;-90
2022/08/08 02:46:10;;;;;;;0.10;0.10;;;;;;;;;;4956001;28;20047;-90
2022/08/08 02:48:57;;;;;;;0.10;0.10;;;;;;;;;;4940025;28;20137;-91
2022/08/08 02:51:48;;;;;;;0.10;0.10;;;;;;;;;;4955205;28;20085;-90
2022/08/08 02:54:14;;;;;;;0.10;0.10;;;;;;;;;;4924115;28;20142;-90
2022/08/08 02:56:43;;;;;;;0.10;0.10;;;;;;;;;;4939790;28;20078;-90
2022/08/08 02:59:09;;;;;;;0.10;0.10;;;;;;;;;;4941370;28;20039;-89
2022/08/08 03:01:54;;;;;;;0.10;0.10;;;;;;;;;;4945408;28;20035;-88
2022/08/08 03:04:38;;;;;;;0.10;0.10;;;;;;;;;;4945086;28;20085;-90
2022/08/08 03:07:26;;;;;;;0.10;0.10;;;;;;;;;;4945227;28;20042;-90
2022/08/08 03:10:05;;;;;;;0.10;0.10;;;;;;;;;;4943498;28;20503;-91
2022/08/08 03:12:54;;;;;;;0.10;0.10;;;;;;;;;;4959336;28;20042;-91
2022/08/08 03:15:23;;;;;;;0.10;0.10;;;;;;;;;;4907835;28;20061;-89
2022/08/08 03:17:52;;;;;;;0.10;0.10;;;;;;;;;;4943140;28;20051;-92
2022/08/08 03:20:18;;;;;;;0.10;0.10;;;;;;;;;;4943837;28;20125;-91
2022/08/08 03:22:49;;;;;;;0.10;0.10;;;;;;;;;;4942746;28;20077;-92
2022/08/08 03:25:18;;;;;;;0.10;0.10;;;;;;;;;;4960030;28;20049;-92
2022/08/08 03:27:45;;;;;;;0.10;0.10;;;;;;;;;;4942940;28;20475;-91
2022/08/08 03:30:12;;;;;;;0.10;0.10;;;;;;;;;;4943123;28;20078;-92
2022/08/08 03:35:23;;;;;;;0.10;0.10;;;;;;;;;;4947812;28;20462;-92
2022/08/08 03:37:49;;;;;;;0.10;0.10;;;;;;;;;;4945313;28;20035;-90
2022/08/08 03:40:16;;;;;;;0.10;0.10;;;;;;;;;;4944270;28;20042;-91
2022/08/08 03:42:43;;;;;;;0.10;0.10;;;;;;;;;;4943006;28;20035;-91
2022/08/08 03:45:19;;;;;;;0.10;0.10;;;;;;;;;;4943083;28;20042;-91
2022/08/08 03:48:04;;;;;;;0.10;0.10;;;;;;;;;;4942776;28;20047;-91
2022/08/08 03:50:31;;;;;;;0.10;0.10;;;;;;;;;;4943451;28;20054;-90
2022/08/08 03:52:57;;;;;;;0.10;0.10;;;;;;;;;;4926630;28;20467;-90
2022/08/08 03:55:23;;;;;;;0.10;0.10;;;;;;;;;;4942319;28;20105;-90
2022/08/08 03:57:55;;;;;;;0.10;0.10;;;;;;;;;;4942772;28;20236;-91
2022/08/08 04:00:22;;;;;;;0.10;0.10;;;;;;;;;;4942731;28;20046;-91
2022/08/08 04:03:01;;;;;;;0.10;0.10;;;;;;;;;;4926711;28;20544;-92
2022/08/08 04:05:27;;;;;;;0.10;0.10;;;;;;;;;;4942341;28;20050;-91
2022/08/08 04:07:53;;;;;;;0.10;0.10;;;;;;;;;;4926441;28;20094;-91
2022/08/08 04:10:20;;;;;;;0.10;0.10;;;;;;;;;;4942705;28;20043;-92
2022/08/08 04:12:46;;;;;;;0.10;0.10;;;;;;;;;;4941794;28;20046;-91
2022/08/08 04:15:12;;;;;;;0.10;0.10;;;;;;;;;;4942034;28;20043;-93
2022/08/08 04:17:39;;;;;;;0.10;0.10;;;;;;;;;;4941858;28;20057;-92
2022/08/08 04:20:05;;;;;;;0.10;0.10;;;;;;;;;;4926230;28;20086;-92
2022/08/08 04:22:32;;;;;;;0.10;0.10;;;;;;;;;;4926013;28;20042;-92
2022/08/08 04:24:58;;;;;;;0.10;0.10;;;;;;;;;;4942062;28;20051;-92
2022/08/08 04:27:24;;;;;;;0.10;0.10;;;;;;;;;;4925943;28;20054;-92
2022/08/08 04:29:50;;;;;;;0.10;0.10;;;;;;;;;;4941984;28;20046;-92
2022/08/08 04:32:16;;;;;;;0.10;0.10;;;;;;;;;;4941946;28;20474;-93
2022/08/08 04:34:42;;;;;;;0.10;0.10;;;;;;;;;;4941942;28;20434;-92
2022/08/08 04:37:08;;;;;;;0.10;0.10;;;;;;;;;;4941512;28;20054;-92
2022/08/08 04:39:34;;;;;;;0.10;0.10;;;;;;;;;;4942068;28;20138;-93
2022/08/08 04:42:02;;;;;;;0.10;0.10;;;;;;;;;;4941624;28;20074;-93
2022/08/08 04:44:28;;;;;;;0.10;0.10;;;;;;;;;;4941949;28;20074;-92
2022/08/08 04:46:54;;;;;;;0.10;0.10;;;;;;;;;;4942021;28;20054;-91
2022/08/08 04:49:20;;;;;;;0.10;0.10;;;;;;;;;;4941571;28;20479;-91
2022/08/08 04:51:46;;;;;;;0.10;0.10;;;;;;;;;;4926546;28;20697;-91
2022/08/08 04:54:12;;;;;;;0.10;0.10;;;;;;;;;;4925743;28;20129;-90
2022/08/08 04:56:39;;;;;;;0.10;0.10;;;;;;;;;;4941490;28;20105;-90
2022/08/08 04:59:05;;;;;;;0.10;0.10;;;;;;;;;;4941367;28;20140;-91
2022/08/08 05:01:31;;;;;;;0.10;0.10;;;;;;;;;;4941049;28;20082;-92
2022/08/08 05:03:57;;;;;;;0.10;0.10;;;;;;;;;;4941559;28;20471;-92
2022/08/08 05:06:23;;;;;;;0.10;0.10;;;;;;;;;;4957240;28;20039;-93
2022/08/08 05:08:49;;;;;;;0.10;0.10;;;;;;;;;;4941596;28;20038;-95
2022/08/08 05:11:19;;;;;;;0.10;0.10;;;;;;;;;;4943369;28;20053;-91
2022/08/08 05:13:45;;;;;;;0.10;0.10;;;;;;;;;;4941222;28;20043;-89
2022/08/08 05:16:11;;;;;;;0.10;0.10;;;;;;;;;;4940458;28;20105;-87
2022/08/08 05:18:37;;;;;;;0.08;0.08;;;;;;;;;;4940798;28;20046;-86
2022/08/08 05:21:03;;;;;;;0.10;0.10;;;;;;;;;;4940574;28;20494;-87
2022/08/08 05:23:29;;;;;;;0.10;0.10;;;;;;;;;;4956757;28;20039;-86
2022/08/08 05:25:57;;;;;;;0.10;0.10;;;;;;;;;;4924895;28;20355;-87
2022/08/08 05:28:23;;;;;;;0.10;0.10;;;;;;;;;;4940789;28;20105;-87
2022/08/08 05:30:49;;;;;;;0.10;0.10;;;;;;;;;;4940950;28;20038;-89
2022/08/08 05:33:15;;;;;;;0.10;0.10;;;;;;;;;;4956318;28;20035;-87
2022/08/08 05:35:44;;;;;;;0.10;0.10;;;;;;;;;;4940629;28;20043;-88
2022/08/08 05:38:13;;;;;;;0.10;0.10;;;;;;;;;;4956365;28;20043;-87
2022/08/08 05:40:39;;;;;;;0.00;0.00;;;;;;;;;;4940401;28;20486;-88
2022/08/08 05:43:06;;;;;;;0.20;0.20;;;;;;;;;;4956418;28;20039;-87
2022/08/08 05:45:36;;;;;;;0.10;0.10;;;;;;;;;;4940992;28;20097;-88
2022/08/08 05:48:03;;;;;;;0.10;0.10;;;;;;;;;;4940337;28;20050;-88
2022/08/08 05:50:29;;;;;;;0.10;0.10;;;;;;;;;;4940358;28;20048;-88
2022/08/08 05:52:55;;;;;;;0.10;0.10;;;;;;;;;;4940527;28;20043;-88
2022/08/08 05:55:21;;;;;;;0.10;0.10;;;;;;;;;;4956173;28;20064;-88
2022/08/08 05:57:47;;;;;;;0.10;0.10;;;;;;;;;;4940019;28;20597;-87
2022/08/08 06:00:13;;;;;;;0.10;0.10;;;;;;;;;;4956358;28;20171;-87
2022/08/08 06:05:40;;;;;;;0.10;0.10;;;;;;;;;;4928919;28;20062;-90
2022/08/08 06:08:06;;;;;;;0.10;0.10;;;;;;;;;;4956024;28;20034;-89
2022/08/08 06:10:32;;;;;;;0.10;0.10;;;;;;;;;;4939928;28;20133;-89
2022/08/08 06:12:59;;;;;;;0.10;0.10;;;;;;;;;;4940241;28;20096;-90
2022/08/08 06:15:25;;;;;;;0.10;0.10;;;;;;;;;;4923975;28;20133;-89
2022/08/08 06:17:53;;;;;;;0.10;0.10;;;;;;;;;;4939906;28;20082;-90
2022/08/08 06:20:19;;;;;;;0.10;0.10;;;;;;;;;;4939823;28;20049;-89
2022/08/08 06:22:44;;;;;;;0.10;0.10;;;;;;;;;;4940038;28;20121;-89
2022/08/08 06:25:10;;;;;;;0.10;0.10;;;;;;;;;;4940193;28;20092;-89
2022/08/08 06:27:40;;;;;;;0.10;0.10;;;;;;;;;;4939823;28;20490;-89
2022/08/08 06:30:10;;;;;;;0.10;0.10;;;;;;;;;;4955694;28;20094;-90
2022/08/08 06:32:43;;;;;;;0.10;0.10;;;;;;;;;;4939976;28;20054;-90
2022/08/08 06:35:11;;;;;;;0.10;0.10;;;;;;;;;;4941301;28;20391;-90
2022/08/08 06:37:37;;;;;;;0.10;0.10;;;;;;;;;;4943363;28;20043;-90
2022/08/08 06:40:07;;;;;;;0.10;0.10;;;;;;;;;;4959430;28;20039;-90
2022/08/08 06:42:36;;;;;;;0.10;0.10;;;;;;;;;;4959294;28;20479;-90
2022/08/08 06:45:03;;;;;;;0.10;0.10;;;;;;;;;;4943684;28;20391;-90
2022/08/08 06:47:29;;;;;;;0.10;0.10;;;;;;;;;;4943536;28;20442;-90
2022/08/08 06:49:55;;;;;;;0.10;0.10;;;;;;;;;;4943307;28;20524;-90
2022/08/08 06:52:21;;;;;;;0.10;0.10;;;;;;;;;;4943221;28;20043;-88
2022/08/08 06:54:48;;;;;;;0.10;0.10;;;;;;;;;;4943558;28;20046;-90
2022/08/08 06:57:14;;;;;;;0.10;0.10;;;;;;;;;;4943267;28;20046;-89
2022/08/08 06:59:40;;;;;;;0.15;0.15;;;;;;;;;;4943449;28;20097;-90
2022/08/08 07:02:06;;;;;;;0.10;0.10;;;;;;;;;;4943100;28;20126;-90
2022/08/08 07:04:51;;;;;;;0.20;0.20;;;;;;;;;;4943294;28;20490;-90
2022/08/08 07:07:18;;;;;;;0.20;0.20;;;;;;;;;;4942490;28;20050;-89
2022/08/08 07:09:50;;;;;;;0.10;0.10;;;;;;;;;;4958768;28;20082;-90
2022/08/08 07:12:17;;;;;;;0.10;0.10;;;;;;;;;;4943220;28;20056;-89
2022/08/08 07:14:48;;;;;;;0.10;0.10;;;;;;;;;;4943076;28;20038;-89
2022/08/08 07:17:17;;;;;;;0.10;0.10;;;;;;;;;;4958776;28;20057;-89
2022/08/08 07:19:43;;;;;;;0.20;0.20;;;;;;;;;;4943002;28;20096;-90
2022/08/08 07:22:10;;;;;;;0.10;0.10;;;;;;;;;;4942745;28;20082;-90
2022/08/08 07:24:36;;;;;;;0.10;0.10;;;;;;;;;;4943078;28;20336;-90
2022/08/08 07:27:02;;;;;;;0.10;0.10;;;;;;;;;;4942742;28;20050;-89
2022/08/08 07:29:29;;;;;;;0.13;0.13;;;;;;;;;;4942578;28;20050;-90
2022/08/08 07:31:55;;;;;;;0.10;0.10;;;;;;;;;;4942592;28;20054;-88
2022/08/08 07:34:21;;;;;;;0.10;0.10;;;;;;;;;;4942727;28;20043;-90
2022/08/08 07:36:48;;;;;;;0.10;0.10;;;;;;;;;;4942769;28;20471;-88
2022/08/08 07:39:15;;;;;;;0.10;0.10;;;;;;;;;;4942703;28;20034;-90
2022/08/08 07:41:41;;;;;;;0.10;0.10;;;;;;;;;;4958598;28;20463;-90
2022/08/08 07:44:07;;;;;;;0.10;0.10;;;;;;;;;;4942396;28;20490;-90
2022/08/08 07:46:33;;;;;;;0.10;0.10;;;;;;;;;;4925228;28;20046;-90
2022/08/08 07:48:59;;;;;;;0.10;0.10;;;;;;;;;;4942368;28;20047;-90
2022/08/08 07:51:25;;;;;;;0.10;0.10;;;;;;;;;;4958101;28;20418;-90
2022/08/08 07:54:02;;;;;;;0.10;0.10;;;;;;;;;;4942301;28;20042;-89
2022/08/08 07:56:28;;;;;;;0.20;0.20;;;;;;;;;;4942201;28;20503;-90
2022/08/08 07:58:54;;;;;;;0.13;0.13;;;;;;;;;;4941891;28;20038;-90
2022/08/08 08:01:22;;;;;;;0.90;0.75;;;;;;;;;;4926755;28;20078;-90
2022/08/08 08:03:55;;;;;;;6.03;0.40;;;;;;;;;;4942589;28;20042;-90
2022/08/08 08:06:21;;;;;;;0.20;0.20;;;;;;;;;;4941836;28;20078;-90
2022/08/08 08:08:48;;;;;;;0.10;0.10;;;;;;;;;;4942042;28;20434;-90
2022/08/08 08:11:15;;;;;;;0.10;0.10;;;;;;;;;;4941970;28;20505;-90
2022/08/08 08:13:44;;;;;;;0.10;0.10;;;;;;;;;;4957893;28;20201;-90
2022/08/08 08:16:10;;;;;;;0.20;0.20;;;;;;;;;;4941750;28;20058;-90
2022/08/08 08:18:44;;;;;;;0.20;0.20;;;;;;;;;;4957978;28;20109;-90
2022/08/08 08:21:10;;;;;;;0.10;0.10;;;;;;;;;;4941947;28;20045;-90
2022/08/08 08:23:36;;;;;;;0.10;0.10;;;;;;;;;;4941598;28;20042;-90
2022/08/08 08:26:02;;;;;;;0.10;0.10;;;;;;;;;;4941875;28;20125;-90
2022/08/08 08:28:28;;;;;;;0.17;0.17;;;;;;;;;;4941687;28;20043;-90
2022/08/08 08:30:55;;;;;;;0.20;0.20;;;;;;;;;;4941868;28;20042;-90
2022/08/08 08:33:21;;;;;;;0.10;0.10;;;;;;;;;;4941663;28;20078;-91
2022/08/08 08:35:47;;;;;;;0.20;0.20;;;;;;;;;;4941552;28;20060;-90
2022/08/08 08:38:13;;;;;;;0.10;0.10;;;;;;;;;;4941407;28;20482;-90
2022/08/08 08:40:39;;;;;;;0.20;0.20;;;;;;;;;;4941502;28;20354;-90
2022/08/08 08:43:06;;;;;;;0.20;0.20;;;;;;;;;;4957452;28;20039;-90
2022/08/08 08:45:32;;;;;;;0.13;0.13;;;;;;;;;;4941428;28;20042;-89
2022/08/08 08:47:58;;;;;;;0.10;0.10;;;;;;;;;;4957385;28;20069;-89
2022/08/08 08:50:24;;;;;;;0.10;0.10;;;;;;;;;;4941466;28;20046;-89
2022/08/08 08:52:50;;;;;;;0.10;0.10;;;;;;;;;;4941526;28;20442;-89
2022/08/08 08:55:17;;;;;;;0.10;0.10;;;;;;;;;;4956782;28;20070;-90
2022/08/08 08:57:43;;;;;;;0.10;0.10;;;;;;;;;;4940694;28;20043;-90
2022/08/08 09:00:09;;;;;;;0.10;0.10;;;;;;;;;;4941269;28;20035;-89
2022/08/08 09:02:35;;;;;;;0.10;0.10;;;;;;;;;;4925323;28;20108;-89
2022/08/08 09:05:02;;;;;;;0.10;0.10;;;;;;;;;;4941230;28;20046;-89
2022/08/08 09:07:28;;;;;;;0.10;0.10;;;;;;;;;;4941186;28;20397;-89
2022/08/08 09:09:54;;;;;;;0.10;0.10;;;;;;;;;;4940762;28;20046;-89
2022/08/08 09:12:23;;;;;;;0.10;0.10;;;;;;;;;;4941258;28;20047;-90
2022/08/08 09:14:51;;;;;;;0.10;0.10;;;;;;;;;;4940793;28;20106;-89
2022/08/08 09:17:17;;;;;;;0.10;0.10;;;;;;;;;;4940614;28;20061;-89
2022/08/08 09:19:43;;;;;;;0.10;0.10;;;;;;;;;;4940720;28;20130;-90
2022/08/08 09:22:09;;;;;;;0.10;0.10;;;;;;;;;;4956842;28;20122;-90
2022/08/08 09:24:36;;;;;;;0.10;0.10;;;;;;;;;;4941148;28;20061;-90
2022/08/08 09:27:05;;;;;;;0.17;0.17;;;;;;;;;;4957001;28;20109;-90
2022/08/08 09:29:31;;;;;;;0.10;0.10;;;;;;;;;;4940318;28;20046;-89
2022/08/08 09:32:00;;;;;;;0.10;0.10;;;;;;;;;;4956599;28;20038;-90
2022/08/08 09:34:28;;;;;;;0.10;0.10;;;;;;;;;;4940321;28;20070;-89
2022/08/08 09:37:04;;;;;;;0.13;0.13;;;;;;;;;;4942894;28;20042;-90
2022/08/08 09:39:54;;;;;;;0.10;0.10;;;;;;;;;;4942725;28;20046;-90
2022/08/08 09:42:21;;;;;;;0.10;0.10;;;;;;;;;;4939823;28;20561;-89
2022/08/08 09:45:03;;;;;;;0.20;0.20;;;;;;;;;;4924293;28;20047;-89
2022/08/08 09:47:30;;;;;;;0.10;0.10;;;;;;;;;;4940206;28;20478;-90
2022/08/08 09:49:57;;;;;;;0.10;0.10;;;;;;;;;;4940166;28;20043;-89
2022/08/08 09:52:23;;;;;;;0.10;0.10;;;;;;;;;;4940265;28;20051;-89
2022/08/08 09:54:49;;;;;;;0.10;0.10;;;;;;;;;;4940390;28;20085;-89
2022/08/08 09:57:23;;;;;;;0.10;0.10;;;;;;;;;;4940101;28;20046;-90
2022/08/08 09:59:50;;;;;;;0.10;0.10;;;;;;;;;;4939940;28;20046;-90
2022/08/08 10:02:23;;;;;;;0.10;0.10;;;;;;;;;;4941045;28;20042;-88
2022/08/08 10:04:49;;;;;;;0.10;0.10;;;;;;;;;;4941567;28;20057;-88
2022/08/08 10:07:15;;;;;;;0.20;0.20;;;;;;;;;;4940190;28;20451;-88
2022/08/08 10:09:42;;;;;;;0.10;0.10;;;;;;;;;;4939368;28;20121;-91
2022/08/08 10:12:08;;;;;;;0.10;0.10;;;;;;;;;;4940002;28;20131;-88
2022/08/08 10:14:35;;;;;;;0.10;0.10;;;;;;;;;;4932196;28;20368;-88
2022/08/08 10:17:08;;;;;;;0.30;0.30;;;;;;;;;;4924055;28;20050;-88
2022/08/08 10:19:38;;;;;;;0.10;0.10;;;;;;;;;;4939894;28;20383;-89
2022/08/08 10:22:04;;;;;;;0.10;0.10;;;;;;;;;;4924157;28;20087;-88
2022/08/08 10:24:30;;;;;;;0.20;0.20;;;;;;;;;;4940080;28;20110;-89
2022/08/08 10:26:59;;;;;;;0.10;0.10;;;;;;;;;;4939673;28;20434;-88
2022/08/08 10:29:40;;;;;;;0.10;0.10;;;;;;;;;;4924139;28;20043;-88
2022/08/08 10:34:56;;;;;;;0.10;0.10;;;;;;;;;;4955763;28;20046;-89
2022/08/08 10:37:25;;;;;;;0.10;0.10;;;;;;;;;;4939856;28;20050;-88
2022/08/08 10:39:52;;;;;;;0.10;0.10;;;;;;;;;;4924161;28;20042;-89
2022/08/08 10:42:19;;;;;;;0.10;0.10;;;;;;;;;;4939925;28;20166;-89
2022/08/08 10:44:45;;;;;;;1.85;0.32;;;;;;;;;;4923691;28;20038;-89
2022/08/08 10:47:17;;;;;;;0.10;0.10;;;;;;;;;;4939611;28;20054;-89
2022/08/08 10:49:50;;;;;;;0.10;0.10;;;;;;;;;;4923509;28;20049;-88
2022/08/08 10:52:29;;;;;;;0.10;0.10;;;;;;;;;;4923982;28;20043;-89
2022/08/08 10:54:56;;;;;;;0.10;0.10;;;;;;;;;;4923403;28;20039;-88
2022/08/08 10:57:22;;;;;;;0.10;0.10;;;;;;;;;;4939449;28;20078;-89
2022/08/08 10:59:54;;;;;;;0.10;0.10;;;;;;;;;;4923536;28;20078;-89
2022/08/08 11:02:27;;;;;;;0.10;0.10;;;;;;;;;;4923260;28;20045;-89
2022/08/08 11:04:55;;;;;;;0.10;0.10;;;;;;;;;;4923904;28;20548;-88
2022/08/08 11:07:31;;;;;;;0.10;0.10;;;;;;;;;;4923621;28;20486;-89
2022/08/08 11:10:01;;;;;;;0.10;0.10;;;;;;;;;;4923412;28;20087;-88
2022/08/08 11:12:27;;;;;;;0.10;0.10;;;;;;;;;;4923255;28;20114;-89
2022/08/08 11:14:58;;;;;;;0.10;0.10;;;;;;;;;;4923122;28;20039;-89
2022/08/08 11:17:25;;;;;;;0.10;0.10;;;;;;;;;;4939059;28;20063;-89
2022/08/08 11:19:52;;;;;;;0.10;0.10;;;;;;;;;;4923474;28;20070;-89
2022/08/08 11:22:20;;;;;;;0.10;0.10;;;;;;;;;;4942179;28;20494;-88
2022/08/08 11:24:46;;;;;;;0.10;0.10;;;;;;;;;;4926813;28;20042;-89
2022/08/08 11:27:12;;;;;;;0.10;0.10;;;;;;;;;;4926382;28;20454;-89
2022/08/08 11:29:38;;;;;;;0.10;0.10;;;;;;;;;;4958785;28;20667;-89
2022/08/08 11:32:04;;;;;;;0.13;0.13;;;;;;;;;;4926276;28;20050;-89
2022/08/08 11:34:32;;;;;;;0.10;0.10;;;;;;;;;;4926095;28;20048;-88
2022/08/08 11:36:59;;;;;;;0.10;0.10;;;;;;;;;;4926260;28;20054;-88
2022/08/08 11:39:25;;;;;;;0.10;0.10;;;;;;;;;;4926231;28;20072;-89
2022/08/08 11:41:51;;;;;;;0.10;0.10;;;;;;;;;;4926115;28;20462;-88
2022/08/08 11:44:17;;;;;;;0.10;0.10;;;;;;;;;;4926288;28;20046;-90
2022/08/08 11:46:43;;;;;;;0.30;0.30;;;;;;;;;;4926896;28;20088;-89
2022/08/08 11:49:10;;;;;;;0.10;0.10;;;;;;;;;;4926562;28;20487;-89
2022/08/08 11:51:36;;;;;;;0.10;0.10;;;;;;;;;;4926385;28;20042;-88
2022/08/08 11:54:02;;;;;;;0.10;0.10;;;;;;;;;;4926556;28;20043;-89
2022/08/08 11:56:32;;;;;;;0.10;0.10;;;;;;;;;;4926256;28;20046;-90
2022/08/08 11:59:04;;;;;;;0.10;0.10;;;;;;;;;;4926231;28;20053;-89
2022/08/08 12:01:31;;;;;;;0.10;0.10;;;;;;;;;;4926347;28;20042;-89
2022/08/08 12:03:58;;;;;;;0.10;0.10;;;;;;;;;;4926614;28;20054;-89
2022/08/08 12:06:24;;;;;;;0.10;0.10;;;;;;;;;;4926235;28;20043;-89
2022/08/08 12:08:50;;;;;;;0.10;0.10;;;;;;;;;;4942176;28;20042;-88
2022/08/08 12:11:19;;;;;;;0.10;0.10;;;;;;;;;;4926173;28;20042;-88
2022/08/08 12:13:48;;;;;;;0.10;0.10;;;;;;;;;;4926621;28;20072;-88
2022/08/08 12:16:17;;;;;;;0.20;0.20;;;;;;;;;;4926320;28;20051;-89
2022/08/08 12:18:44;;;;;;;0.10;0.10;;;;;;;;;;4926550;28;20043;-89
2022/08/08 12:21:24;;;;;;;0.10;0.10;;;;;;;;;;4926030;28;20121;-89
2022/08/08 12:23:50;;;;;;;0.10;0.10;;;;;;;;;;4942181;28;20402;-89
2022/08/08 12:26:20;;;;;;;0.20;0.20;;;;;;;;;;4925980;28;20085;-89
2022/08/08 12:28:55;;;;;;;0.10;0.10;;;;;;;;;;4927139;28;20046;-89
2022/08/08 12:31:29;;;;;;;0.10;0.10;;;;;;;;;;4925769;28;20081;-88
2022/08/08 12:33:55;;;;;;;0.10;0.10;;;;;;;;;;4924920;28;20070;-89
2022/08/08 12:36:21;;;;;;;0.10;0.10;;;;;;;;;;4925769;28;20133;-89
2022/08/08 12:38:49;;;;;;;0.10;0.10;;;;;;;;;;4925618;28;20039;-89
2022/08/08 12:41:15;;;;;;;0.10;0.10;;;;;;;;;;4926161;28;20047;-88
2022/08/08 12:43:41;;;;;;;0.20;0.20;;;;;;;;;;4925524;28;20042;-89
2022/08/08 12:46:16;;;;;;;0.10;0.10;;;;;;;;;;4941602;28;20050;-89
2022/08/08 12:48:52;;;;;;;0.10;0.10;;;;;;;;;;4941209;28;20178;-88
2022/08/08 12:51:18;;;;;;;0.10;0.10;;;;;;;;;;4925980;28;20129;-89
2022/08/08 12:53:58;;;;;;;0.10;0.10;;;;;;;;;;4941223;28;20046;-89
2022/08/08 12:56:34;;;;;;;0.10;0.10;;;;;;;;;;4941102;28;20451;-88
2022/08/08 12:59:00;;;;;;;0.15;0.15;;;;;;;;;;4925125;28;20035;-89
2022/08/08 13:01:35;;;;;;;0.10;0.10;;;;;;;;;;4925497;28;20442;-89
2022/08/08 13:04:12;;;;;;;0.10;0.10;;;;;;;;;;4941372;28;20528;-89
2022/08/08 13:06:38;;;;;;;0.20;0.20;;;;;;;;;;4956946;28;20144;-89
2022/08/08 13:09:08;;;;;;;0.15;0.15;;;;;;;;;;4940898;28;20042;-89
2022/08/08 13:11:37;;;;;;;0.10;0.10;;;;;;;;;;4925101;28;20052;-89
2022/08/08 13:14:11;;;;;;;0.10;0.10;;;;;;;;;;4925875;28;20038;-89
2022/08/08 13:16:38;;;;;;;0.10;0.10;;;;;;;;;;4925633;28;20065;-89
2022/08/08 13:19:06;;;;;;;0.10;0.10;;;;;;;;;;4924991;28;20034;-89
2022/08/08 13:21:32;;;;;;;0.10;0.10;;;;;;;;;;4925167;28;20043;-89
2022/08/08 13:23:58;;;;;;;0.10;0.10;;;;;;;;;;4940577;28;20084;-89
2022/08/08 13:26:28;;;;;;;0.10;0.10;;;;;;;;;;4940991;28;20401;-89
2022/08/08 13:28:54;;;;;;;0.10;0.10;;;;;;;;;;4940735;28;20082;-89
2022/08/08 13:31:20;;;;;;;0.20;0.20;;;;;;;;;;4940657;28;20458;-89
2022/08/08 13:33:46;;;;;;;0.10;0.10;;;;;;;;;;4925137;28;20042;-88
2022/08/08 13:36:12;;;;;;;0.10;0.10;;;;;;;;;;4924490;28;20046;-89
2022/08/08 13:38:38;;;;;;;0.10;0.10;;;;;;;;;;4956195;28;20043;-89
2022/08/08 13:41:05;;;;;;;0.10;0.10;;;;;;;;;;4924509;28;20046;-89
2022/08/08 13:43:31;;;;;;;1.40;0.90;;;;;;;;;;4924813;28;20049;-89
2022/08/08 13:46:13;;;;;;;0.10;0.10;;;;;;;;;;4924781;28;20394;-89
2022/08/08 13:48:43;;;;;;;0.10;0.10;;;;;;;;;;4924448;28;20043;-89
2022/08/08 13:51:09;;;;;;;0.10;0.10;;;;;;;;;;4956003;28;20085;-89
2022/08/08 13:53:39;;;;;;;0.17;0.17;;;;;;;;;;4924473;28;20043;-89
2022/08/08 13:56:06;;;;;;;0.10;0.10;;;;;;;;;;4925198;28;20130;-89
2022/08/08 13:58:33;;;;;;;0.10;0.10;;;;;;;;;;4924449;28;20083;-89
2022/08/08 14:01:09;;;;;;;0.10;0.10;;;;;;;;;;4940358;28;20046;-89
2022/08/08 14:03:35;;;;;;;0.20;0.20;;;;;;;;;;4924229;28;20077;-88
2022/08/08 14:06:08;;;;;;;0.10;0.10;;;;;;;;;;4924604;28;20098;-89
2022/08/08 14:08:42;;;;;;;0.10;0.10;;;;;;;;;;4924111;28;20046;-89
2022/08/08 14:11:08;;;;;;;0.10;0.10;;;;;;;;;;4940220;28;20058;-89
2022/08/08 14:13:34;;;;;;;0.10;0.10;;;;;;;;;;4905345;29;20546;-88
2022/08/08 14:16:01;;;;;;;0.10;0.10;;;;;;;;;;4902941;28;20054;-87
2022/08/08 14:18:27;;;;;;;0.10;0.10;;;;;;;;;;4908367;29;20090;-88
2022/08/08 14:21:00;;;;;;;0.10;0.10;;;;;;;;;;4905321;29;20133;-88
2022/08/08 14:23:26;;;;;;;0.20;0.20;;;;;;;;;;4905268;29;20051;-88
2022/08/08 14:25:56;;;;;;;0.10;0.10;;;;;;;;;;4905127;29;20088;-89
2022/08/08 14:28:22;;;;;;;0.10;0.10;;;;;;;;;;4904996;29;20049;-88
2022/08/08 14:30:48;;;;;;;0.10;0.10;;;;;;;;;;4936491;29;20106;-87
2022/08/08 14:33:24;;;;;;;0.10;0.10;;;;;;;;;;4921049;29;20046;-89
2022/08/08 14:36:09;;;;;;;0.10;0.10;;;;;;;;;;4924227;28;20061;-88
2022/08/08 14:38:37;;;;;;;0.10;0.10;;;;;;;;;;4940326;28;20505;-90
2022/08/08 14:41:19;;;;;;;0.10;0.10;;;;;;;;;;4924201;28;20039;-89
2022/08/08 14:43:51;;;;;;;0.10;0.10;;;;;;;;;;4940786;28;20125;-89
2022/08/08 14:46:19;;;;;;;0.20;0.20;;;;;;;;;;4924273;28;20053;-89
2022/08/08 14:48:45;;;;;;;0.10;0.10;;;;;;;;;;4915934;28;20075;-87
2022/08/08 14:51:12;;;;;;;0.10;0.10;;;;;;;;;;4904501;29;20052;-89
2022/08/08 14:53:38;;;;;;;0.10;0.10;;;;;;;;;;4900964;29;20099;-88
2022/08/08 14:56:04;;;;;;;0.10;0.10;;;;;;;;;;4903074;29;20052;-90
2022/08/08 14:58:30;;;;;;;0.10;0.10;;;;;;;;;;4907693;28;20085;-90
2022/08/08 15:00:56;;;;;;;0.17;0.17;;;;;;;;;;4909067;29;20082;-89
2022/08/08 15:03:22;;;;;;;0.20;0.20;;;;;;;;;;4908621;29;20031;-88
2022/08/08 15:05:48;;;;;;;0.10;0.10;;;;;;;;;;4908967;29;20384;-89
2022/08/08 15:08:16;;;;;;;0.10;0.10;;;;;;;;;;4924159;28;20130;-92
2022/08/08 15:10:45;;;;;;;0.10;0.10;;;;;;;;;;4909190;29;20039;-90